Time;durP1;ratioP1;P1;durP2;ratioP2;P2;SDS_P1;SDS_P2;PMS_P1;PMS_P2;Temp;Humidity;BMP_temperature;BMP_pressure;BME280_temperature;BME280_humidity;BME280_pressure;Samples;Min_cycle;Max_cycle;Signal;HPM_P1;HPM_P2
2021/10/23 00:00:09;;;;;;;;;19.50;14.00;;;;;-142.59;100.00;56100.38;5034872;28;49595;-70
2021/10/23 00:02:34;;;;;;;;;18.25;12.75;;;;;-142.59;100.00;56100.38;5034971;28;49846;-69
2021/10/23 00:05:00;;;;;;;;;15.50;13.75;;;;;-142.59;100.00;56100.38;5034338;28;68106;-69
2021/10/23 00:07:25;;;;;;;;;14.00;12.50;;;;;-142.59;100.00;56100.38;5052747;28;61179;-68
2021/10/23 00:09:50;;;;;;;;;13.25;11.25;;;;;-142.59;100.00;56100.38;5052464;28;64893;-69
2021/10/23 00:12:16;;;;;;;;;13.25;13.25;;;;;-142.59;100.00;56100.38;5052799;28;55781;-69
2021/10/23 00:14:41;;;;;;;;;15.25;13.00;;;;;-142.59;100.00;56100.38;5052414;28;63227;-69
2021/10/23 00:17:07;;;;;;;;;14.75;13.25;;;;;-142.59;100.00;56100.38;5052320;28;65146;-69
2021/10/23 00:19:32;;;;;;;;;13.50;13.50;;;;;-142.59;100.00;56100.38;5017240;28;64126;-69
2021/10/23 00:21:57;;;;;;;;;14.75;14.00;;;;;-142.59;100.00;56100.38;5034748;28;50382;-69
2021/10/23 00:24:23;;;;;;;;;12.00;11.00;;;;;-142.59;100.00;56100.38;5053194;28;50103;-69
2021/10/23 00:26:48;;;;;;;;;14.25;14.25;;;;;-142.59;100.00;56100.38;5001143;28;55736;-69
2021/10/23 00:29:14;;;;;;;;;11.75;11.75;;;;;-142.59;100.00;56100.38;5052031;28;65273;-69
2021/10/23 00:31:39;;;;;;;;;20.25;16.75;;;;;-142.59;100.00;56100.38;5017793;28;51371;-69
2021/10/23 00:34:04;;;;;;;;;11.25;11.25;;;;;-142.59;100.00;56100.38;5052421;28;49745;-69
2021/10/23 00:36:30;;;;;;;;;12.50;12.50;;;;;-142.59;100.00;56100.38;5017471;28;69020;-69
2021/10/23 00:38:55;;;;;;;;;15.75;13.75;;;;;-142.59;100.00;56100.38;5052506;28;52294;-69
2021/10/23 00:41:20;;;;;;;;;13.50;11.75;;;;;-142.59;100.00;56100.38;5033599;28;74723;-69
2021/10/23 00:43:47;;;;;;;;;14.50;12.50;;;;;-142.59;100.00;56100.38;5051807;28;70684;-69
2021/10/23 00:46:13;;;;;;;;;12.75;12.25;;;;;-142.59;100.00;56100.38;5034639;28;49590;-69
2021/10/23 00:48:38;;;;;;;;;13.25;12.00;;;;;-142.59;100.00;56100.38;5034420;28;49650;-69
2021/10/23 00:51:04;;;;;;;;;10.75;8.25;;;;;-142.59;100.00;56100.38;5018065;28;50586;-69
2021/10/23 00:53:30;;;;;;;;;8.50;6.50;;;;;-142.59;100.00;56100.38;5017948;28;49778;-69
2021/10/23 00:55:55;;;;;;;;;13.75;12.75;;;;;-142.59;100.00;56100.38;5052422;28;49930;-69
2021/10/23 00:58:20;;;;;;;;;7.75;7.75;;;;;-142.59;100.00;56100.38;5052691;28;49697;-70
2021/10/23 01:00:46;;;;;;;;;16.50;13.00;;;;;-142.59;100.00;56100.38;5017149;28;63221;-69
2021/10/23 01:03:12;;;;;;;;;18.00;14.50;;;;;-142.59;100.00;56100.38;5052378;28;49787;-69
2021/10/23 01:05:37;;;;;;;;;11.50;10.25;;;;;-142.59;100.00;56100.38;5034064;28;49791;-69
2021/10/23 01:08:02;;;;;;;;;10.00;10.00;;;;;-142.59;100.00;56100.38;5034226;28;49784;-69
2021/10/23 01:10:28;;;;;;;;;13.25;13.00;;;;;-142.59;100.00;56100.38;5051338;28;50572;-70
2021/10/23 01:12:53;;;;;;;;;11.50;9.75;;;;;-142.59;100.00;56100.38;5051365;28;66647;-69
2021/10/23 01:15:22;;;;;;;;;10.25;10.25;;;;;-142.59;100.00;56100.38;5033650;28;61736;-69
2021/10/23 01:17:48;;;;;;;;;8.25;7.25;;;;;-142.59;100.00;56100.38;5052202;28;49888;-69
2021/10/23 01:20:14;;;;;;;;;9.75;9.50;;;;;-142.59;100.00;56100.38;5033671;28;50778;-69
2021/10/23 01:22:39;;;;;;;;;11.50;8.25;;;;;-142.59;100.00;56100.38;5051929;28;49677;-69
2021/10/23 01:25:05;;;;;;;;;11.00;8.75;;;;;-142.59;100.00;56100.38;5051639;28;59141;-69
2021/10/23 01:27:31;;;;;;;;;6.50;6.50;;;;;-142.59;100.00;56100.38;5052258;28;50110;-69
2021/10/23 01:29:56;;;;;;;;;14.00;10.75;;;;;-142.59;100.00;56100.38;5033741;28;50306;-70
2021/10/23 01:32:22;;;;;;;;;9.00;8.00;;;;;-142.59;100.00;56100.38;5051258;28;67300;-68
2021/10/23 01:34:47;;;;;;;;;10.00;8.50;;;;;-142.59;100.00;56100.38;5050408;28;50071;-69
2021/10/23 01:37:13;;;;;;;;;16.00;10.25;;;;;-142.59;100.00;56100.38;5051297;28;59034;-70
2021/10/23 01:39:38;;;;;;;;;10.50;10.50;;;;;-142.59;100.00;56100.38;5017251;28;49787;-69
2021/10/23 01:42:04;;;;;;;;;8.25;7.25;;;;;-142.59;100.00;56100.38;5051600;28;50039;-69
2021/10/23 01:44:34;;;;;;;;;11.75;10.50;;;;;-142.59;100.00;56100.38;5051507;28;49587;-69
2021/10/23 01:47:00;;;;;;;;;8.00;7.00;;;;;-142.59;100.00;56100.38;5033830;28;49753;-69
2021/10/23 01:49:26;;;;;;;;;8.25;7.75;;;;;-142.59;100.00;56100.38;5051442;28;50850;-69
2021/10/23 01:51:51;;;;;;;;;12.00;9.25;;;;;-142.59;100.00;56100.38;5032706;28;71044;-69
2021/10/23 01:54:17;;;;;;;;;9.00;8.50;;;;;-142.59;100.00;56100.38;5033672;28;49769;-70
2021/10/23 01:56:42;;;;;;;;;7.25;7.25;;;;;-142.59;100.00;56100.38;5033274;28;49962;-69
2021/10/23 01:59:08;;;;;;;;;9.00;8.75;;;;;-142.59;100.00;56100.38;5033135;28;50106;-70
2021/10/23 02:01:33;;;;;;;;;8.75;7.00;;;;;-142.59;100.00;56100.38;5016693;28;49701;-70
2021/10/23 02:03:59;;;;;;;;;8.25;8.00;;;;;-142.59;100.00;56100.38;5033222;28;49786;-70
2021/10/23 02:06:24;;;;;;;;;13.50;9.50;;;;;-142.59;100.00;56100.38;5033217;28;53778;-69
2021/10/23 02:08:49;;;;;;;;;8.25;8.00;;;;;-142.59;100.00;56100.38;5049244;28;68120;-68
2021/10/23 02:11:15;;;;;;;;;11.50;7.50;;;;;-142.59;100.00;56100.38;5033380;28;49841;-69
2021/10/23 02:13:40;;;;;;;;;7.25;7.00;;;;;-142.59;100.00;56100.38;5050364;28;68112;-69
2021/10/23 02:16:06;;;;;;;;;10.75;9.25;;;;;-142.59;100.00;56100.38;5033298;28;49632;-69
2021/10/23 02:18:32;;;;;;;;;9.50;7.25;;;;;-142.59;100.00;56100.38;5032721;28;50781;-69
2021/10/23 02:20:57;;;;;;;;;9.25;9.00;;;;;-142.59;100.00;56100.38;5032284;28;68560;-69
2021/10/23 02:23:23;;;;;;;;;9.25;8.00;;;;;-142.59;100.00;56100.38;5032351;28;63860;-69
2021/10/23 02:25:48;;;;;;;;;12.50;9.50;;;;;-142.59;100.00;56100.38;4999656;28;49928;-69
2021/10/23 02:28:14;;;;;;;;;8.75;7.00;;;;;-142.59;100.00;56100.38;5032774;28;52613;-69
2021/10/23 02:30:39;;;;;;;;;13.00;9.75;;;;;-142.59;100.00;56100.38;5033209;28;49872;-69
2021/10/23 02:33:04;;;;;;;;;7.00;6.25;;;;;-142.59;100.00;56100.38;5033176;28;50120;-69
2021/10/23 02:35:30;;;;;;;;;6.75;6.75;;;;;-142.59;100.00;56100.38;5032611;28;50541;-70
2021/10/23 02:37:56;;;;;;;;;6.75;5.50;;;;;-142.59;100.00;56100.38;5050111;28;67672;-70
2021/10/23 02:40:22;;;;;;;;;6.75;6.75;;;;;-142.59;100.00;56100.38;5050786;28;49887;-69
2021/10/23 02:42:47;;;;;;;;;6.25;6.25;;;;;-142.59;100.00;56100.38;5016397;28;49951;-69
2021/10/23 02:45:13;;;;;;;;;6.75;6.50;;;;;-142.59;100.00;56100.38;5050431;28;59428;-69
2021/10/23 02:47:38;;;;;;;;;8.00;6.50;;;;;-142.59;100.00;56100.38;5048306;28;70765;-69
2021/10/23 02:50:04;;;;;;;;;9.50;6.00;;;;;-142.59;100.00;56100.38;5032603;28;49922;-69
2021/10/23 02:52:30;;;;;;;;;6.50;6.00;;;;;-142.59;100.00;56100.38;5016447;28;49713;-69
2021/10/23 02:54:55;;;;;;;;;7.25;5.75;;;;;-142.59;100.00;56100.38;5050893;28;49887;-70
2021/10/23 02:57:21;;;;;;;;;7.50;6.50;;;;;-142.59;100.00;56100.38;5049484;28;72226;-70
2021/10/23 02:59:46;;;;;;;;;9.00;8.00;;;;;-142.59;100.00;56100.38;5032705;28;49680;-69
2021/10/23 03:02:12;;;;;;;;;6.75;5.00;;;;;-142.59;100.00;56100.38;5032030;28;65406;-69
2021/10/23 03:04:37;;;;;;;;;7.50;6.75;;;;;-142.59;100.00;56100.38;5016043;28;50032;-69
2021/10/23 03:07:02;;;;;;;;;4.00;4.00;;;;;-142.59;100.00;56100.38;5050335;28;50402;-69
2021/10/23 03:09:28;;;;;;;;;6.50;5.00;;;;;-142.59;100.00;56100.38;5050466;28;50301;-69
2021/10/23 03:11:53;;;;;;;;;8.00;8.00;;;;;-142.59;100.00;56100.38;5049944;28;62260;-71
2021/10/23 03:14:19;;;;;;;;;9.25;5.50;;;;;-142.59;100.00;56100.38;5050763;28;49757;-69
2021/10/23 03:16:44;;;;;;;;;10.25;8.75;;;;;-142.59;100.00;56100.38;5032418;28;51566;-69
2021/10/23 03:19:09;;;;;;;;;12.50;7.50;;;;;-142.59;100.00;56100.38;5049870;28;54417;-70
2021/10/23 03:21:35;;;;;;;;;11.00;7.50;;;;;-142.59;100.00;56100.38;5049819;28;62150;-69
2021/10/23 03:24:00;;;;;;;;;7.00;7.00;;;;;-142.59;100.00;56100.38;5049896;28;61862;-69
2021/10/23 03:26:26;;;;;;;;;8.25;7.00;;;;;-142.59;100.00;56100.38;5050199;28;50214;-68
2021/10/23 03:28:51;;;;;;;;;6.00;6.00;;;;;-142.59;100.00;56100.38;5031779;28;66204;-70
2021/10/23 03:31:16;;;;;;;;;8.75;7.00;;;;;-142.59;100.00;56100.38;5015578;28;52744;-69
2021/10/23 03:33:42;;;;;;;;;8.00;6.25;;;;;-142.59;100.00;56100.38;5050049;28;51997;-69
2021/10/23 03:36:07;;;;;;;;;11.50;9.00;;;;;-142.59;100.00;56100.38;5035136;28;64327;-69
2021/10/23 03:38:32;;;;;;;;;7.00;7.00;;;;;-142.59;100.00;56100.38;5018297;28;68136;-69
2021/10/23 03:40:58;;;;;;;;;11.50;7.75;;;;;-142.59;100.00;56100.38;5017981;28;69444;-69
2021/10/23 03:43:23;;;;;;;;;6.25;4.50;;;;;-142.59;100.00;56100.38;5053070;28;61514;-69
2021/10/23 03:45:49;;;;;;;;;8.00;8.00;;;;;-142.59;100.00;56100.38;5035081;28;59260;-68
2021/10/23 03:48:14;;;;;;;;;6.75;6.75;;;;;-142.59;100.00;56100.38;5034619;28;71245;-69
2021/10/23 03:50:39;;;;;;;;;8.50;8.50;;;;;-142.59;100.00;56100.38;5052393;28;66249;-69
2021/10/23 03:53:05;;;;;;;;;8.75;7.50;;;;;-142.59;100.00;56100.38;5018567;28;53033;-69
2021/10/23 03:55:30;;;;;;;;;8.50;8.50;;;;;-142.59;100.00;56100.38;5035334;28;50393;-69
2021/10/23 03:57:56;;;;;;;;;7.00;7.00;;;;;-142.59;100.00;56100.38;5034258;28;67837;-70
2021/10/23 04:00:21;;;;;;;;;6.75;6.75;;;;;-142.59;100.00;56100.38;5053309;28;51959;-70
2021/10/23 04:02:46;;;;;;;;;9.75;6.50;;;;;-142.59;100.00;56100.38;5018612;28;49848;-70
2021/10/23 04:05:12;;;;;;;;;5.75;4.75;;;;;-142.59;100.00;56100.38;5018111;28;49695;-70
2021/10/23 04:07:37;;;;;;;;;7.75;6.00;;;;;-142.59;100.00;56100.38;5018598;28;49708;-70
2021/10/23 04:10:04;;;;;;;;;6.50;6.00;;;;;-142.59;100.00;56100.38;5052499;28;64188;-71
2021/10/23 04:12:30;;;;;;;;;10.00;6.75;;;;;-142.59;100.00;56100.38;5035299;28;50273;-69
2021/10/23 04:14:55;;;;;;;;;6.75;5.50;;;;;-142.59;100.00;56100.38;5035150;28;50069;-70
2021/10/23 04:17:20;;;;;;;;;8.50;6.75;;;;;-142.59;100.00;56100.38;5052823;28;54373;-69
2021/10/23 04:19:46;;;;;;;;;6.75;6.25;;;;;-142.59;100.00;56100.38;5052746;28;49842;-69
2021/10/23 04:22:12;;;;;;;;;12.50;6.50;;;;;-142.59;100.00;56100.38;5017677;28;63286;-69
2021/10/23 04:24:38;;;;;;;;;7.00;6.00;;;;;-142.59;100.00;56100.38;5051312;28;51616;-69
2021/10/23 04:27:03;;;;;;;;;9.25;7.00;;;;;-142.59;100.00;56100.38;5034237;28;65418;-69
2021/10/23 04:29:29;;;;;;;;;9.25;6.25;;;;;-142.59;100.00;56100.38;5034864;28;49791;-69
2021/10/23 04:31:54;;;;;;;;;6.25;6.25;;;;;-142.59;100.00;56100.38;5053133;28;49722;-69
2021/10/23 04:34:19;;;;;;;;;7.00;7.00;;;;;-142.59;100.00;56100.38;5033683;28;72623;-70
2021/10/23 04:36:45;;;;;;;;;7.50;7.25;;;;;-142.59;100.00;56100.38;5052823;28;49598;-69
2021/10/23 04:39:10;;;;;;;;;6.00;6.00;;;;;-142.59;100.00;56100.38;5018228;28;49855;-69
2021/10/23 04:41:36;;;;;;;;;6.75;6.00;;;;;-142.59;100.00;56100.38;5017401;28;61540;-69
2021/10/23 04:44:02;;;;;;;;;7.00;7.00;;;;;-142.59;100.00;56100.38;5017636;28;57361;-69
2021/10/23 04:46:27;;;;;;;;;10.50;7.50;;;;;-142.59;100.00;56100.38;5051422;28;49624;-69
2021/10/23 04:48:52;;;;;;;;;11.25;9.00;;;;;-142.59;100.00;56100.38;5051568;28;66622;-70
2021/10/23 04:51:18;;;;;;;;;7.50;6.00;;;;;-142.59;100.00;56100.38;5034236;28;58906;-69
2021/10/23 04:53:43;;;;;;;;;11.50;9.00;;;;;-142.59;100.00;56100.38;5033854;28;64022;-70
2021/10/23 04:56:08;;;;;;;;;8.00;6.50;;;;;-142.59;100.00;56100.38;5033593;28;66933;-71
2021/10/23 04:58:38;;;;;;;;;8.00;7.00;;;;;-142.59;100.00;56100.38;5033654;28;69146;-70
2021/10/23 05:01:03;;;;;;;;;9.25;7.25;;;;;-142.59;100.00;56100.38;5052506;28;49883;-69
2021/10/23 05:03:29;;;;;;;;;2.00;2.00;;;;;-142.59;100.00;56100.38;5034075;28;49695;-69
2021/10/23 05:05:54;;;;;;;;;9.50;7.50;;;;;-142.59;100.00;56100.38;5033496;28;71071;-69
2021/10/23 05:08:19;;;;;;;;;7.00;7.00;;;;;-142.59;100.00;56100.38;5051892;28;61541;-68
2021/10/23 05:10:45;;;;;;;;;9.25;7.00;;;;;-142.59;100.00;56100.38;5050956;28;49597;-69
2021/10/23 05:13:10;;;;;;;;;4.00;4.00;;;;;-142.59;100.00;56100.38;5051654;28;64144;-70
2021/10/23 05:15:36;;;;;;;;;6.75;6.75;;;;;-142.59;100.00;56100.38;5034217;28;50536;-68
2021/10/23 05:18:01;;;;;;;;;9.00;8.00;;;;;-142.59;100.00;56100.38;5051483;28;63208;-69
2021/10/23 05:20:27;;;;;;;;;7.75;7.25;;;;;-142.59;100.00;56100.38;5052004;28;49627;-70
2021/10/23 05:22:53;;;;;;;;;7.00;6.75;;;;;-142.59;100.00;56100.38;5017419;28;50116;-69
2021/10/23 05:25:18;;;;;;;;;7.00;7.00;;;;;-142.59;100.00;56100.38;5017013;28;49740;-69
2021/10/23 05:27:44;;;;;;;;;6.50;4.25;;;;;-142.59;100.00;56100.38;5033290;28;63883;-69
2021/10/23 05:30:09;;;;;;;;;11.00;9.00;;;;;-142.59;100.00;56100.38;5034014;28;49845;-69
2021/10/23 05:32:34;;;;;;;;;8.00;5.75;;;;;-142.59;100.00;56100.38;5051882;28;49752;-69
2021/10/23 05:35:00;;;;;;;;;12.75;9.00;;;;;-142.59;100.00;56100.38;5033185;28;60587;-69
2021/10/23 05:37:25;;;;;;;;;8.75;8.75;;;;;-142.59;100.00;56100.38;5033893;28;49857;-69
2021/10/23 05:39:51;;;;;;;;;10.50;9.00;;;;;-142.59;100.00;56100.38;5051874;28;49691;-69
2021/10/23 05:42:16;;;;;;;;;11.75;7.25;;;;;-142.59;100.00;56100.38;5050832;28;71961;-68
2021/10/23 05:44:42;;;;;;;;;11.25;8.00;;;;;-142.59;100.00;56100.38;5033839;28;49773;-68
2021/10/23 05:47:07;;;;;;;;;7.00;7.00;;;;;-142.59;100.00;56100.38;5051746;28;49684;-68
2021/10/23 05:49:33;;;;;;;;;8.50;8.00;;;;;-142.59;100.00;56100.38;5017282;28;49783;-69
2021/10/23 05:51:58;;;;;;;;;8.75;8.50;;;;;-142.59;100.00;56100.38;5033047;28;65812;-69
2021/10/23 05:54:24;;;;;;;;;11.50;9.75;;;;;-142.59;100.00;56100.38;5051417;28;49747;-69
2021/10/23 05:56:49;;;;;;;;;8.00;8.00;;;;;-142.59;100.00;56100.38;5032690;28;63833;-69
2021/10/23 05:59:15;;;;;;;;;13.50;11.00;;;;;-142.59;100.00;56100.38;5050218;28;50007;-69
2021/10/23 06:01:46;;;;;;;;;12.25;10.75;;;;;-142.59;100.00;56100.38;5033349;28;50468;-70
2021/10/23 06:04:14;;;;;;;;;8.50;8.50;;;;;-142.59;100.00;56100.38;5033968;28;49829;-68
2021/10/23 06:06:39;;;;;;;;;7.00;7.00;;;;;-142.59;100.00;56100.38;5017662;28;49818;-72
2021/10/23 06:09:04;;;;;;;;;4.75;4.75;;;;;-142.59;100.00;56100.38;5015911;28;65831;-69
2021/10/23 06:11:30;;;;;;;;;5.25;5.25;;;;;-142.59;100.00;56100.38;5051052;28;50506;-69
2021/10/23 06:13:56;;;;;;;;;11.25;9.00;;;;;-142.59;100.00;56100.38;5033275;28;49686;-70
2021/10/23 06:16:22;;;;;;;;;8.00;8.00;;;;;-142.59;100.00;56100.38;5033547;28;49916;-68
2021/10/23 06:18:48;;;;;;;;;10.25;9.25;;;;;-142.59;100.00;56100.38;5050977;28;50176;-70
2021/10/23 06:21:13;;;;;;;;;8.00;8.00;;;;;-142.59;100.00;56100.38;5033037;28;50451;-69
2021/10/23 06:23:38;;;;;;;;;8.25;8.25;;;;;-142.59;100.00;56100.38;5032734;28;56990;-69
2021/10/23 06:26:04;;;;;;;;;12.00;7.50;;;;;-142.59;100.00;56100.38;5032360;28;68986;-70
2021/10/23 06:28:29;;;;;;;;;11.50;9.75;;;;;-142.59;100.00;56100.38;5051137;28;49690;-69
2021/10/23 06:30:55;;;;;;;;;7.75;7.75;;;;;-142.59;100.00;56100.38;5050840;28;50230;-68
2021/10/23 06:33:20;;;;;;;;;9.00;7.00;;;;;-142.59;100.00;56100.38;5016189;28;49814;-69
2021/10/23 06:35:46;;;;;;;;;10.25;7.75;;;;;-142.59;100.00;56100.38;5050954;28;49731;-71
2021/10/23 06:38:11;;;;;;;;;10.25;7.75;;;;;-142.59;100.00;56100.38;5033292;28;50165;-68
2021/10/23 06:40:37;;;;;;;;;8.50;8.00;;;;;-142.59;100.00;56100.38;5050082;28;74721;-68
2021/10/23 06:43:02;;;;;;;;;6.75;4.00;;;;;-142.59;100.00;56100.38;5032170;28;61852;-68
2021/10/23 06:45:27;;;;;;;;;8.25;6.50;;;;;-142.59;100.00;56100.38;5032776;28;50562;-68
2021/10/23 06:47:54;;;;;;;;;7.00;6.25;;;;;-142.59;100.00;56100.38;5032613;28;49748;-68
2021/10/23 06:50:19;;;;;;;;;8.75;8.25;;;;;-142.59;100.00;56100.38;5050254;28;50522;-68
2021/10/23 06:52:45;;;;;;;;;6.75;6.00;;;;;-142.59;100.00;56100.38;5031920;28;68599;-71
2021/10/23 06:55:10;;;;;;;;;12.75;8.00;;;;;-142.59;100.00;56100.38;5015754;28;67117;-68
2021/10/23 06:57:36;;;;;;;;;7.75;5.75;;;;;-142.59;100.00;56100.38;5033267;28;49891;-72
2021/10/23 07:00:01;;;;;;;;;5.75;5.00;;;;;-142.59;100.00;56100.38;5015670;28;51618;-69
2021/10/23 07:02:27;;;;;;;;;8.75;8.75;;;;;-142.59;100.00;56100.38;5050522;28;49832;-68
2021/10/23 07:04:53;;;;;;;;;8.00;8.00;;;;;-142.59;100.00;56100.38;5031877;28;62653;-69
2021/10/23 07:07:18;;;;;;;;;7.50;7.00;;;;;-142.59;100.00;56100.38;5032790;28;50063;-68
2021/10/23 07:09:43;;;;;;;;;6.75;6.75;;;;;-142.59;100.00;56100.38;5051316;28;73442;-69
2021/10/23 07:12:11;;;;;;;;;5.75;4.00;;;;;-142.59;100.00;56100.38;5035992;28;51033;-70
2021/10/23 07:14:37;;;;;;;;;8.50;8.50;;;;;-142.59;100.00;56100.38;5053526;28;63283;-69
2021/10/23 07:17:02;;;;;;;;;7.75;7.50;;;;;-142.59;100.00;56100.38;5035300;28;49737;-69
2021/10/23 07:19:27;;;;;;;;;10.00;9.25;;;;;-142.59;100.00;56100.38;5033928;28;50444;-69
2021/10/23 07:21:53;;;;;;;;;11.50;11.00;;;;;-142.59;100.00;56100.38;5035299;28;61393;-72
2021/10/23 07:24:19;;;;;;;;;2.50;2.00;;;;;-142.59;100.00;56100.38;5051841;28;66190;-73
2021/10/23 07:26:47;;;;;;;;;7.25;5.50;;;;;-142.59;100.00;56100.38;5019799;28;49547;-73
2021/10/23 07:29:13;;;;;;;;;7.00;7.00;;;;;-142.59;100.00;56100.38;5053658;28;49779;-77
2021/10/23 07:31:39;;;;;;;;;9.50;9.50;;;;;-142.59;100.00;56100.38;5002611;28;49970;-67
2021/10/23 07:34:05;;;;;;;;;7.50;7.00;;;;;-142.59;100.00;56100.38;5053357;28;49697;-68
2021/10/23 07:36:30;;;;;;;;;8.75;6.00;;;;;-142.59;100.00;56100.38;5053747;28;49847;-68
2021/10/23 07:38:55;;;;;;;;;10.00;8.50;;;;;-142.59;100.00;56100.38;5053598;28;50226;-65
2021/10/23 07:41:21;;;;;;;;;11.50;9.75;;;;;-142.59;100.00;56100.38;5052620;28;67363;-64
2021/10/23 07:43:46;;;;;;;;;8.50;7.75;;;;;-142.59;100.00;56100.38;5052694;28;57578;-64
2021/10/23 07:46:12;;;;;;;;;12.75;8.75;;;;;-142.59;100.00;56100.38;5053170;28;56657;-69
2021/10/23 07:48:37;;;;;;;;;13.75;9.00;;;;;-142.59;100.00;56100.38;5052677;28;49971;-68
2021/10/23 07:51:04;;;;;;;;;7.00;7.00;;;;;-142.59;100.00;56100.38;5029551;28;50206;-68
2021/10/23 07:53:29;;;;;;;;;10.25;8.75;;;;;-142.59;100.00;56100.38;5034716;28;49700;-68
2021/10/23 07:55:55;;;;;;;;;8.25;7.00;;;;;-142.59;100.00;56100.38;5035200;28;49761;-68
2021/10/23 07:58:21;;;;;;;;;8.50;8.50;;;;;-142.59;100.00;56100.38;5052194;28;71704;-68
2021/10/23 08:00:46;;;;;;;;;11.25;10.25;;;;;-142.59;100.00;56100.38;5034907;28;50117;-67
2021/10/23 08:03:12;;;;;;;;;9.75;7.25;;;;;-142.59;100.00;56100.38;5052173;28;49713;-67
2021/10/23 08:05:37;;;;;;;;;10.25;9.75;;;;;-142.59;100.00;56100.38;5056527;28;49809;-77
2021/10/23 08:08:03;;;;;;;;;9.50;5.75;;;;;-142.59;100.00;56100.38;5040115;28;50312;-71
2021/10/23 08:10:29;;;;;;;;;8.00;8.00;;;;;-142.59;100.00;56100.38;5025599;28;49606;-69
2021/10/23 08:12:55;;;;;;;;;9.00;7.75;;;;;-142.59;100.00;56100.38;5035056;28;50044;-70
2021/10/23 08:15:21;;;;;;;;;11.75;8.25;;;;;-142.59;100.00;56100.38;5035185;28;49768;-72
2021/10/23 08:17:47;;;;;;;;;8.00;8.00;;;;;-142.59;100.00;56100.38;5023371;28;51440;-77
2021/10/23 08:20:13;;;;;;;;;10.50;10.00;;;;;-142.59;100.00;56100.38;5069238;28;49451;-79
2021/10/23 08:22:38;;;;;;;;;13.50;8.25;;;;;-142.59;100.00;56100.38;5070425;28;49454;-77
2021/10/23 08:25:05;;;;;;;;;7.00;7.00;;;;;-142.59;100.00;56100.38;5070317;28;49302;-70
2021/10/23 08:27:34;;;;;;;;;14.25;9.75;;;;;-142.59;100.00;56100.38;5069400;28;49924;-70
2021/10/23 08:30:00;;;;;;;;;8.00;8.00;;;;;-142.59;100.00;56100.38;5067757;28;49304;-69
2021/10/23 08:32:26;;;;;;;;;7.50;7.25;;;;;-142.59;100.00;56100.38;5067758;28;49629;-70
2021/10/23 08:34:51;;;;;;;;;7.50;7.25;;;;;-142.59;100.00;56100.38;5068679;28;49491;-70
2021/10/23 08:37:17;;;;;;;;;13.25;11.25;;;;;-142.59;100.00;56100.38;5068222;28;71320;-70
2021/10/23 08:39:42;;;;;;;;;8.25;8.00;;;;;-142.59;100.00;56100.38;5066780;28;69181;-73
2021/10/23 08:42:08;;;;;;;;;13.25;11.00;;;;;-142.59;100.00;56100.38;5051400;28;56538;-69
2021/10/23 08:44:34;;;;;;;;;10.75;9.75;;;;;-142.59;100.00;56100.38;5044145;28;49672;-72
2021/10/23 08:46:59;;;;;;;;;8.50;8.00;;;;;-142.59;100.00;56100.38;5005477;28;73105;-70
2021/10/23 08:49:24;;;;;;;;;10.00;8.00;;;;;-142.59;100.00;56100.38;5051564;28;49964;-71
2021/10/23 08:51:50;;;;;;;;;14.50;11.50;;;;;-142.59;100.00;56100.38;5050676;28;54114;-71
2021/10/23 08:54:15;;;;;;;;;9.50;8.50;;;;;-142.59;100.00;56100.38;5034908;28;49842;-68
2021/10/23 08:56:42;;;;;;;;;11.00;10.75;;;;;-142.59;100.00;56100.38;5013461;28;49897;-70
2021/10/23 08:59:07;;;;;;;;;10.25;10.00;;;;;-142.59;100.00;56100.38;5034439;28;49930;-72
2021/10/23 09:01:33;;;;;;;;;12.00;12.00;;;;;-142.59;100.00;56100.38;5031703;28;50133;-70
2021/10/23 09:03:58;;;;;;;;;14.25;12.75;;;;;-142.59;100.00;56100.38;5051701;28;49628;-69
2021/10/23 09:06:37;;;;;;;;;11.50;10.00;;;;;-142.59;100.00;56100.38;5051187;28;67183;-72
2021/10/23 09:09:51;;;;;;;;;10.00;10.00;;;;;-142.59;100.00;56100.38;5032218;28;49863;-72
2021/10/23 09:12:24;;;;;;;;;10.50;9.50;;;;;-142.59;100.00;56100.38;4996500;28;49809;-86
2021/10/23 09:15:18;;;;;;;;;8.75;7.00;;;;;-142.59;100.00;56100.38;5017459;28;50232;-73
2021/10/23 09:17:53;;;;;;;;;14.75;11.50;;;;;-142.59;100.00;56100.38;5051193;28;50352;-82
2021/10/23 09:20:20;;;;;;;;;13.75;12.75;;;;;-142.59;100.00;56100.38;5042440;28;49966;-80
2021/10/23 09:22:50;;;;;;;;;9.25;7.75;;;;;-142.59;100.00;56100.38;5032963;28;49877;-73
2021/10/23 09:25:29;;;;;;;;;8.75;7.00;;;;;-142.59;100.00;56100.38;5030964;28;50088;-74
2021/10/23 09:28:02;;;;;;;;;10.00;9.00;;;;;-142.59;100.00;56100.38;5051535;28;50871;-74
2021/10/23 09:30:32;;;;;;;;;11.00;10.25;;;;;-142.59;100.00;56100.38;5032853;28;49886;-74
2021/10/23 09:33:06;;;;;;;;;5.00;5.00;;;;;-142.59;100.00;56100.38;5016564;28;50027;-75
2021/10/23 09:35:37;;;;;;;;;10.75;8.00;;;;;-142.59;100.00;56100.38;5049599;28;49845;-73
2021/10/23 09:38:02;;;;;;;;;6.50;6.50;;;;;-142.59;100.00;56100.38;5030724;28;52598;-74
2021/10/23 09:40:29;;;;;;;;;10.50;9.50;;;;;-142.59;100.00;56100.38;5031176;28;50196;-74
2021/10/23 09:43:12;;;;;;;;;5.25;5.25;;;;;-142.59;100.00;56100.38;5013248;28;49838;-73
2021/10/23 09:45:56;;;;;;;;;9.00;7.00;;;;;-142.59;100.00;56100.38;5048464;28;49784;-74
2021/10/23 09:48:49;;;;;;;;;10.50;8.50;;;;;-142.59;100.00;56100.38;5047792;28;50434;-74
2021/10/23 09:51:19;;;;;;;;;9.00;9.00;;;;;-142.59;100.00;56100.38;5047959;28;49953;-74
2021/10/23 09:53:44;;;;;;;;;9.25;7.00;;;;;-142.59;100.00;56100.38;5048431;28;49803;-74
2021/10/23 09:56:16;;;;;;;;;9.75;7.00;;;;;-142.59;100.00;56100.38;5013984;28;49926;-74
2021/10/23 09:58:54;;;;;;;;;8.00;8.00;;;;;-142.59;100.00;56100.38;5013510;28;49629;-74
2021/10/23 10:01:22;;;;;;;;;8.25;8.00;;;;;-142.59;100.00;56100.38;5030857;28;50035;-73
2021/10/23 10:03:49;;;;;;;;;7.25;7.25;;;;;-142.59;100.00;56100.38;4996607;28;49667;-74
2021/10/23 10:06:14;;;;;;;;;13.00;11.25;;;;;-142.59;100.00;56100.38;5013436;28;50101;-75
2021/10/23 10:08:40;;;;;;;;;10.00;9.75;;;;;-142.59;100.00;56100.38;5013036;28;51653;-75
2021/10/23 10:11:05;;;;;;;;;5.50;3.75;;;;;-142.59;100.00;56100.38;5016986;28;49623;-74
2021/10/23 10:13:33;;;;;;;;;9.75;9.00;;;;;-142.59;100.00;56100.38;5050924;28;49915;-73
2021/10/23 10:15:58;;;;;;;;;11.25;7.50;;;;;-142.59;100.00;56100.38;5039870;28;50046;-75
2021/10/23 10:18:24;;;;;;;;;12.75;12.75;;;;;-142.59;100.00;56100.38;5049182;28;49885;-74
2021/10/23 10:20:51;;;;;;;;;9.50;9.50;;;;;-142.59;100.00;56100.38;5049762;28;49709;-74
2021/10/23 10:23:18;;;;;;;;;12.00;10.00;;;;;-142.59;100.00;56100.38;5049727;28;49883;-75
2021/10/23 10:25:45;;;;;;;;;12.00;9.75;;;;;-142.59;100.00;56100.38;5049895;28;49820;-76
2021/10/23 10:28:11;;;;;;;;;12.00;11.00;;;;;-142.59;100.00;56100.38;5032635;28;51564;-76
2021/10/23 10:30:38;;;;;;;;;11.00;11.00;;;;;-142.59;100.00;56100.38;5016410;28;49844;-75
2021/10/23 10:33:22;;;;;;;;;11.50;9.75;;;;;-142.59;100.00;56100.38;5049349;28;49873;-76
2021/10/23 10:39:06;;;;;;;;;11.25;9.75;;;;;-142.59;100.00;56100.38;5050893;28;49598;-76
2021/10/23 10:44:07;;;;;;;;;12.50;11.75;;;;;-142.59;100.00;56100.38;5014911;28;49861;-74
2021/10/23 10:47:06;;;;;;;;;15.25;12.75;;;;;-142.59;100.00;56100.38;5054708;28;49766;-78
2021/10/23 10:49:53;;;;;;;;;10.75;9.75;;;;;-142.59;100.00;56100.38;5019385;28;51887;-76
2021/10/23 11:00:26;;;;;;;;;;;;;;;;;;;;;
2021/10/23 11:02:52;;;;;;;;;5.00;4.75;;;;;-142.59;100.00;56100.38;5009974;28;79647;-78
2021/10/23 11:05:18;;;;;;;;;7.25;6.00;;;;;-142.59;100.00;56100.38;5018086;28;56835;-73
2021/10/23 11:08:24;;;;;;;;;5.00;5.00;;;;;-142.59;100.00;56100.38;5057023;28;49550;-80
2021/10/23 11:11:25;;;;;;;;;3.75;3.75;;;;;-142.59;100.00;56100.38;4972269;28;49829;-79
2021/10/23 11:13:45;;;;;;;;;9.00;6.75;;;;;-142.59;100.00;56100.38;4962262;28;50680;-73
2021/10/23 11:16:26;;;;;;;;;8.50;7.25;;;;;-142.59;100.00;56100.38;5036115;28;50126;-78
2021/10/23 11:19:15;;;;;;;;;7.75;7.75;;;;;-142.59;100.00;56100.38;5057793;28;49609;-78